sensor_id;sensor_type;location;lat;lon;timestamp;pressure;altitude;pressure_sealevel;temperature;humidity
50484;BME280;36409;52.168;20.878;2022-12-29T00:00:15;100236.48;;;4.98;74.78
50484;BME280;36409;52.168;20.878;2022-12-29T00:03:04;100247.72;;;5.00;74.78
50484;BME280;36409;52.168;20.878;2022-12-29T00:05:34;100243.39;;;4.99;74.76
50484;BME280;36409;52.168;20.878;2022-12-29T00:08:04;100241.66;;;4.98;74.73
50484;BME280;36409;52.168;20.878;2022-12-29T00:10:33;100243.39;;;4.99;75.02
50484;BME280;36409;52.168;20.878;2022-12-29T00:13:02;100238.22;;;4.99;74.53
50484;BME280;36409;52.168;20.878;2022-12-29T00:15:49;100230.46;;;4.98;74.65
50484;BME280;36409;52.168;20.878;2022-12-29T00:18:18;100231.31;;;4.98;74.73
50484;BME280;36409;52.168;20.878;2022-12-29T00:20:47;100224.41;;;4.97;74.61
50484;BME280;36409;52.168;20.878;2022-12-29T00:23:37;100221.81;;;4.97;74.52
50484;BME280;36409;52.168;20.878;2022-12-29T00:26:24;100233.05;;;4.99;74.73
50484;BME280;36409;52.168;20.878;2022-12-29T00:29:10;100227.88;;;4.99;74.43
50484;BME280;36409;52.168;20.878;2022-12-29T00:32:09;100240.84;;;5.01;74.60
50484;BME280;36409;52.168;20.878;2022-12-29T00:34:57;100242.55;;;5.02;74.81
50484;BME280;36409;52.168;20.878;2022-12-29T00:37:40;100233.08;;;5.02;75.04
50484;BME280;36409;52.168;20.878;2022-12-29T00:40:28;100240.84;;;5.04;74.65
50484;BME280;36409;52.168;20.878;2022-12-29T00:43:15;100231.38;;;5.04;74.84
50484;BME280;36409;52.168;20.878;2022-12-29T00:46:03;100246.03;;;5.07;74.57
50484;BME280;36409;52.168;20.878;2022-12-29T00:48:32;100233.09;;;5.08;74.58
50484;BME280;36409;52.168;20.878;2022-12-29T00:51:20;100236.56;;;5.10;74.82
50484;BME280;36409;52.168;20.878;2022-12-29T00:53:48;100236.59;;;5.14;74.64
50484;BME280;36409;52.168;20.878;2022-12-29T00:56:17;100228.83;;;5.15;74.52
50484;BME280;36409;52.168;20.878;2022-12-29T00:58:46;100229.71;;;5.16;74.50
50484;BME280;36409;52.168;20.878;2022-12-29T01:01:15;100221.95;;;5.17;74.68
50484;BME280;36409;52.168;20.878;2022-12-29T01:03:45;100221.95;;;5.19;74.87
50484;BME280;36409;52.168;20.878;2022-12-29T01:06:15;100224.56;;;5.20;74.48
50484;BME280;36409;52.168;20.878;2022-12-29T01:08:46;100222.83;;;5.21;74.33
50484;BME280;36409;52.168;20.878;2022-12-29T01:11:15;100212.47;;;5.21;74.55
50484;BME280;36409;52.168;20.878;2022-12-29T01:13:45;100222.83;;;5.21;74.36
50484;BME280;36409;52.168;20.878;2022-12-29T01:16:14;100214.20;;;5.20;74.38
50484;BME280;36409;52.168;20.878;2022-12-29T01:18:43;100210.73;;;5.20;74.57
50484;BME280;36409;52.168;20.878;2022-12-29T01:21:12;100208.16;;;5.20;74.29
50484;BME280;36409;52.168;20.878;2022-12-29T01:23:41;100202.98;;;5.20;74.35
50484;BME280;36409;52.168;20.878;2022-12-29T01:26:11;100204.72;;;5.18;74.25
50484;BME280;36409;52.168;20.878;2022-12-29T01:28:40;100193.48;;;5.17;74.32
50484;BME280;36409;52.168;20.878;2022-12-29T01:31:12;100193.48;;;5.17;74.24
50484;BME280;36409;52.168;20.878;2022-12-29T01:33:42;100187.42;;;5.15;74.42
50484;BME280;36409;52.168;20.878;2022-12-29T01:36:14;100183.96;;;5.13;73.92
50484;BME280;36409;52.168;20.878;2022-12-29T01:38:45;100176.20;;;5.12;74.28
50484;BME280;36409;52.168;20.878;2022-12-29T01:41:15;100180.53;;;5.11;74.04
50484;BME280;36409;52.168;20.878;2022-12-29T01:43:47;100173.59;;;5.08;73.94
50484;BME280;36409;52.168;20.878;2022-12-29T01:46:22;100178.77;;;5.07;74.08
50484;BME280;36409;52.168;20.878;2022-12-29T01:48:55;100178.77;;;5.05;73.57
50484;BME280;36409;52.168;20.878;2022-12-29T01:51:26;100171.86;;;5.04;74.40
50484;BME280;36409;52.168;20.878;2022-12-29T01:54:00;100173.57;;;5.04;74.17
50484;BME280;36409;52.168;20.878;2022-12-29T01:56:31;100163.22;;;5.02;74.16
50484;BME280;36409;52.168;20.878;2022-12-29T01:59:03;100166.66;;;5.01;74.09
50484;BME280;36409;52.168;20.878;2022-12-29T02:01:33;100158.02;;;4.99;74.17
50484;BME280;36409;52.168;20.878;2022-12-29T02:04:04;100153.70;;;4.97;74.14
50484;BME280;36409;52.168;20.878;2022-12-29T02:06:37;100145.06;;;4.94;73.96
50484;BME280;36409;52.168;20.878;2022-12-29T02:09:07;100144.19;;;4.92;74.30
50484;BME280;36409;52.168;20.878;2022-12-29T02:11:37;100150.22;;;4.90;73.97
50484;BME280;36409;52.168;20.878;2022-12-29T02:14:10;100156.25;;;4.89;74.18
50484;BME280;36409;52.168;20.878;2022-12-29T02:16:51;100164.01;;;4.87;74.14
50484;BME280;36409;52.168;20.878;2022-12-29T02:22:35;100162.25;;;4.82;74.29
50484;BME280;36409;52.168;20.878;2022-12-29T02:28:29;100165.66;;;4.79;74.24
50484;BME280;36409;52.168;20.878;2022-12-29T02:31:10;100160.48;;;4.77;74.29
50484;BME280;36409;52.168;20.878;2022-12-29T02:33:51;100162.19;;;4.75;74.24
50484;BME280;36409;52.168;20.878;2022-12-29T02:36:32;100168.22;;;4.74;74.17
50484;BME280;36409;52.168;20.878;2022-12-29T02:39:09;100167.34;;;4.71;73.92
50484;BME280;36409;52.168;20.878;2022-12-29T02:41:44;100170.78;;;4.68;74.41
50484;BME280;36409;52.168;20.878;2022-12-29T02:44:26;100164.72;;;4.66;74.09
50484;BME280;36409;52.168;20.878;2022-12-29T02:47:00;100163.84;;;4.62;74.18
50484;BME280;36409;52.168;20.878;2022-12-29T02:49:39;100174.16;;;4.59;74.42
50484;BME280;36409;52.168;20.878;2022-12-29T02:52:15;100163.78;;;4.56;74.31
50484;BME280;36409;52.168;20.878;2022-12-29T02:54:48;100168.95;;;4.53;74.45
50484;BME280;36409;52.168;20.878;2022-12-29T02:57:29;100180.11;;;4.51;74.28
50484;BME280;36409;52.168;20.878;2022-12-29T03:00:03;100175.80;;;4.46;74.61
50484;BME280;36409;52.168;20.878;2022-12-29T03:03:10;100176.61;;;4.42;74.41
50484;BME280;36409;52.168;20.878;2022-12-29T03:06:04;100173.14;;;4.37;74.59
50484;BME280;36409;52.168;20.878;2022-12-29T03:08:43;100164.47;;;4.33;74.73
50484;BME280;36409;52.168;20.878;2022-12-29T03:11:15;100166.17;;;4.30;74.51
50484;BME280;36409;52.168;20.878;2022-12-29T03:14:17;100162.70;;;4.26;74.54
50484;BME280;36409;52.168;20.878;2022-12-29T03:17:09;100152.37;;;4.25;74.34
50484;BME280;36409;52.168;20.878;2022-12-29T03:19:47;100158.38;;;4.22;74.81
50484;BME280;36409;52.168;20.878;2022-12-29T03:22:22;100151.45;;;4.20;74.71
50484;BME280;36409;52.168;20.878;2022-12-29T03:25:11;100135.94;;;4.16;75.12
50484;BME280;36409;52.168;20.878;2022-12-29T03:27:42;100139.34;;;4.12;74.86
50484;BME280;36409;52.168;20.878;2022-12-29T03:30:13;100139.27;;;4.06;75.10
50484;BME280;36409;52.168;20.878;2022-12-29T03:32:48;100130.67;;;4.04;74.61
50484;BME280;36409;52.168;20.878;2022-12-29T03:35:20;100105.66;;;4.00;74.77
50484;BME280;36409;52.168;20.878;2022-12-29T03:37:55;100083.22;;;3.96;75.15
50484;BME280;36409;52.168;20.878;2022-12-29T03:40:28;100086.66;;;3.92;74.60
50484;BME280;36409;52.168;20.878;2022-12-29T03:42:59;100097.80;;;3.88;74.85
50484;BME280;36409;52.168;20.878;2022-12-29T03:45:29;100112.40;;;3.82;75.14
50484;BME280;36409;52.168;20.878;2022-12-29T03:47:58;100111.48;;;3.79;74.77
50484;BME280;36409;52.168;20.878;2022-12-29T03:50:29;100119.22;;;3.76;75.29
50484;BME280;36409;52.168;20.878;2022-12-29T03:52:57;100095.06;;;3.72;75.13
50484;BME280;36409;52.168;20.878;2022-12-29T03:55:28;100090.78;;;3.71;75.29
50484;BME280;36409;52.168;20.878;2022-12-29T03:57:58;100084.73;;;3.69;75.10
50484;BME280;36409;52.168;20.878;2022-12-29T04:00:47;100088.13;;;3.65;75.28
50484;BME280;36409;52.168;20.878;2022-12-29T04:03:17;100094.98;;;3.63;75.69
50484;BME280;36409;52.168;20.878;2022-12-29T04:05:46;100075.17;;;3.62;75.57
50484;BME280;36409;52.168;20.878;2022-12-29T04:08:15;100082.06;;;3.60;75.52
50484;BME280;36409;52.168;20.878;2022-12-29T04:10:45;100093.20;;;3.57;75.56
50484;BME280;36409;52.168;20.878;2022-12-29T04:13:15;100071.67;;;3.55;75.89
50484;BME280;36409;52.168;20.878;2022-12-29T04:15:46;100089.73;;;3.53;75.95
50484;BME280;36409;52.168;20.878;2022-12-29T04:18:15;100094.89;;;3.52;76.05
50484;BME280;36409;52.168;20.878;2022-12-29T04:20:46;100089.73;;;3.52;75.52
50484;BME280;36409;52.168;20.878;2022-12-29T04:23:35;100091.42;;;3.51;76.34
50484;BME280;36409;52.168;20.878;2022-12-29T04:26:08;100094.89;;;3.52;76.04
50484;BME280;36409;52.168;20.878;2022-12-29T04:28:46;100094.00;;;3.51;76.25
50484;BME280;36409;52.168;20.878;2022-12-29T04:31:33;100092.27;;;3.50;75.79
50484;BME280;36409;52.168;20.878;2022-12-29T04:34:02;100072.47;;;3.49;75.89
50484;BME280;36409;52.168;20.878;2022-12-29T04:36:32;100056.14;;;3.49;76.45
50484;BME280;36409;52.168;20.878;2022-12-29T04:39:01;100063.87;;;3.49;76.20
50484;BME280;36409;52.168;20.878;2022-12-29T04:41:30;100069.89;;;3.48;75.71
50484;BME280;36409;52.168;20.878;2022-12-29T04:43:59;100061.30;;;3.47;75.72
50484;BME280;36409;52.168;20.878;2022-12-29T04:46:35;100061.30;;;3.47;76.55
50484;BME280;36409;52.168;20.878;2022-12-29T04:49:09;100076.78;;;3.47;75.98
50484;BME280;36409;52.168;20.878;2022-12-29T04:52:01;100068.16;;;3.47;76.64
50484;BME280;36409;52.168;20.878;2022-12-29T04:54:30;100071.58;;;3.46;76.45
50484;BME280;36409;52.168;20.878;2022-12-29T04:57:13;100047.50;;;3.45;76.44
50484;BME280;36409;52.168;20.878;2022-12-29T04:59:44;100047.50;;;3.45;76.49
50484;BME280;36409;52.168;20.878;2022-12-29T05:02:13;100049.20;;;3.45;76.11
50484;BME280;36409;52.168;20.878;2022-12-29T05:04:45;100033.72;;;3.43;76.56
50484;BME280;36409;52.168;20.878;2022-12-29T05:07:15;100044.04;;;3.43;76.39
50484;BME280;36409;52.168;20.878;2022-12-29T05:09:45;100038.88;;;3.42;75.91
50484;BME280;36409;52.168;20.878;2022-12-29T05:12:14;100037.14;;;3.40;76.21
50484;BME280;36409;52.168;20.878;2022-12-29T05:14:55;100026.78;;;3.39;76.08
50484;BME280;36409;52.168;20.878;2022-12-29T05:17:25;100037.11;;;3.39;76.35
50484;BME280;36409;52.168;20.878;2022-12-29T05:19:55;100039.69;;;3.39;76.03
50484;BME280;36409;52.168;20.878;2022-12-29T05:22:24;100033.67;;;3.38;76.48
50484;BME280;36409;52.168;20.878;2022-12-29T05:24:55;100029.36;;;3.37;76.05
50484;BME280;36409;52.168;20.878;2022-12-29T05:27:24;100031.94;;;3.37;76.22
50484;BME280;36409;52.168;20.878;2022-12-29T05:30:23;100028.52;;;3.37;76.62
50484;BME280;36409;52.168;20.878;2022-12-29T05:32:52;100011.30;;;3.36;76.42
50484;BME280;36409;52.168;20.878;2022-12-29T05:35:21;100011.30;;;3.36;76.57
50484;BME280;36409;52.168;20.878;2022-12-29T05:37:50;100003.55;;;3.36;76.41
50484;BME280;36409;52.168;20.878;2022-12-29T05:40:19;100011.30;;;3.36;76.14
50484;BME280;36409;52.168;20.878;2022-12-29T05:42:48;100006.14;;;3.36;76.09
50484;BME280;36409;52.168;20.878;2022-12-29T05:45:35;100008.72;;;3.37;76.67
50484;BME280;36409;52.168;20.878;2022-12-29T05:48:13;100001.83;;;3.38;75.88
50484;BME280;36409;52.168;20.878;2022-12-29T05:51:05;100009.57;;;3.38;76.36
50484;BME280;36409;52.168;20.878;2022-12-29T05:53:46;100013.87;;;3.36;75.95
50484;BME280;36409;52.168;20.878;2022-12-29T05:56:16;100016.46;;;3.37;76.39
50484;BME280;36409;52.168;20.878;2022-12-29T05:58:52;100011.30;;;3.37;76.04
50484;BME280;36409;52.168;20.878;2022-12-29T06:01:24;100009.60;;;3.39;76.03
50484;BME280;36409;52.168;20.878;2022-12-29T06:03:55;100014.77;;;3.41;76.51
50484;BME280;36409;52.168;20.878;2022-12-29T06:06:24;100016.50;;;3.44;76.40
50484;BME280;36409;52.168;20.878;2022-12-29T06:08:53;100010.49;;;3.45;75.84
50484;BME280;36409;52.168;20.878;2022-12-29T06:11:22;100022.58;;;3.47;76.21
50484;BME280;36409;52.168;20.878;2022-12-29T06:14:00;100020.86;;;3.49;76.03
50484;BME280;36409;52.168;20.878;2022-12-29T06:16:29;100021.74;;;3.51;76.03
50484;BME280;36409;52.168;20.878;2022-12-29T06:19:02;100022.63;;;3.53;76.09
50484;BME280;36409;52.168;20.878;2022-12-29T06:21:31;100011.45;;;3.54;76.17
50484;BME280;36409;52.168;20.878;2022-12-29T06:24:02;100010.61;;;3.55;75.95
50484;BME280;36409;52.168;20.878;2022-12-29T06:26:31;100004.59;;;3.58;75.82
50484;BME280;36409;52.168;20.878;2022-12-29T06:29:01;100019.23;;;3.61;76.01
50484;BME280;36409;52.168;20.878;2022-12-29T06:31:31;100018.39;;;3.62;75.86
50484;BME280;36409;52.168;20.878;2022-12-29T06:34:00;100011.53;;;3.64;75.80
50484;BME280;36409;52.168;20.878;2022-12-29T06:36:36;100015.84;;;3.66;76.51
50484;BME280;36409;52.168;20.878;2022-12-29T06:39:06;100014.14;;;3.68;76.16
50484;BME280;36409;52.168;20.878;2022-12-29T06:41:35;100012.45;;;3.72;76.47
50484;BME280;36409;52.168;20.878;2022-12-29T06:44:34;100021.96;;;3.76;76.46
50484;BME280;36409;52.168;20.878;2022-12-29T06:47:06;100028.01;;;3.80;76.11
50484;BME280;36409;52.168;20.878;2022-12-29T06:49:35;100015.12;;;3.83;76.35
50484;BME280;36409;52.168;20.878;2022-12-29T06:52:04;100024.64;;;3.87;76.00
50484;BME280;36409;52.168;20.878;2022-12-29T06:54:40;100021.21;;;3.90;75.72
50484;BME280;36409;52.168;20.878;2022-12-29T06:57:09;100012.61;;;3.92;76.17
50484;BME280;36409;52.168;20.878;2022-12-29T06:59:38;100014.34;;;3.95;75.99
50484;BME280;36409;52.168;20.878;2022-12-29T07:02:08;100005.74;;;3.96;76.27
50484;BME280;36409;52.168;20.878;2022-12-29T07:04:39;100000.61;;;3.99;75.78
50484;BME280;36409;52.168;20.878;2022-12-29T07:07:08;100010.97;;;4.02;75.89
50484;BME280;36409;52.168;20.878;2022-12-29T07:09:37;100003.25;;;4.05;75.80
50484;BME280;36409;52.168;20.878;2022-12-29T07:12:06;100000.66;;;4.08;75.73
50484;BME280;36409;52.168;20.878;2022-12-29T07:14:35;99996.38;;;4.12;75.78
50484;BME280;36409;52.168;20.878;2022-12-29T07:17:11;100002.45;;;4.15;76.09
50484;BME280;36409;52.168;20.878;2022-12-29T07:19:40;99993.84;;;4.18;75.96
50484;BME280;36409;52.168;20.878;2022-12-29T07:22:10;99987.83;;;4.21;75.62
50484;BME280;36409;52.168;20.878;2022-12-29T07:24:38;99989.55;;;4.23;75.79
50484;BME280;36409;52.168;20.878;2022-12-29T07:27:08;99999.92;;;4.26;75.72
50484;BME280;36409;52.168;20.878;2022-12-29T07:29:38;99998.22;;;4.28;75.46
50484;BME280;36409;52.168;20.878;2022-12-29T07:32:07;99999.97;;;4.32;75.33
50484;BME280;36409;52.168;20.878;2022-12-29T07:34:36;100001.70;;;4.35;75.79
50484;BME280;36409;52.168;20.878;2022-12-29T07:37:05;100008.59;;;4.39;75.53
50484;BME280;36409;52.168;20.878;2022-12-29T07:39:34;100008.62;;;4.41;75.34
50484;BME280;36409;52.168;20.878;2022-12-29T07:42:03;100000.01;;;4.43;75.20
50484;BME280;36409;52.168;20.878;2022-12-29T07:44:40;100009.48;;;4.46;75.53
50484;BME280;36409;52.168;20.878;2022-12-29T07:47:17;99998.33;;;4.48;75.46
50484;BME280;36409;52.168;20.878;2022-12-29T07:49:46;100000.91;;;4.50;75.61
50484;BME280;36409;52.168;20.878;2022-12-29T07:52:15;99994.88;;;4.53;75.27
50484;BME280;36409;52.168;20.878;2022-12-29T07:54:44;99998.34;;;4.55;75.47
50484;BME280;36409;52.168;20.878;2022-12-29T07:57:13;99997.48;;;4.57;75.00
50484;BME280;36409;52.168;20.878;2022-12-29T07:59:42;99991.48;;;4.60;75.24
50484;BME280;36409;52.168;20.878;2022-12-29T08:02:11;99985.45;;;4.62;75.32
50484;BME280;36409;52.168;20.878;2022-12-29T08:04:40;99982.02;;;4.70;74.98
50484;BME280;36409;52.168;20.878;2022-12-29T08:07:09;99984.64;;;4.77;75.01
50484;BME280;36409;52.168;20.878;2022-12-29T08:09:38;99987.26;;;4.85;75.15
50484;BME280;36409;52.168;20.878;2022-12-29T08:12:09;99985.53;;;4.90;75.01
50484;BME280;36409;52.168;20.878;2022-12-29T08:14:38;99978.66;;;4.97;75.14
50484;BME280;36409;52.168;20.878;2022-12-29T08:17:07;99976.95;;;5.02;74.83
50484;BME280;36409;52.168;20.878;2022-12-29T08:19:37;99978.70;;;5.08;74.85
50484;BME280;36409;52.168;20.878;2022-12-29T08:22:06;99980.42;;;5.15;74.85
50484;BME280;36409;52.168;20.878;2022-12-29T08:24:35;99977.00;;;5.22;74.95
50484;BME280;36409;52.168;20.878;2022-12-29T08:27:04;99983.91;;;5.30;74.70
50484;BME280;36409;52.168;20.878;2022-12-29T08:29:45;99978.74;;;5.37;75.17
50484;BME280;36409;52.168;20.878;2022-12-29T08:32:14;99987.37;;;5.46;74.45
50484;BME280;36409;52.168;20.878;2022-12-29T08:34:43;99982.19;;;5.50;74.80
50484;BME280;36409;52.168;20.878;2022-12-29T08:37:12;99996.00;;;5.54;74.58
50484;BME280;36409;52.168;20.878;2022-12-29T08:39:41;99998.59;;;5.59;74.30
50484;BME280;36409;52.168;20.878;2022-12-29T08:42:10;99997.72;;;5.64;74.28
50484;BME280;36409;52.168;20.878;2022-12-29T08:44:40;100002.90;;;5.69;74.44
50484;BME280;36409;52.168;20.878;2022-12-29T08:47:10;100005.52;;;5.74;74.11
50484;BME280;36409;52.168;20.878;2022-12-29T08:49:39;100006.34;;;5.80;73.82
50484;BME280;36409;52.168;20.878;2022-12-29T08:52:08;100007.23;;;5.84;73.89
50484;BME280;36409;52.168;20.878;2022-12-29T08:54:37;100001.19;;;5.90;74.27
50484;BME280;36409;52.168;20.878;2022-12-29T08:57:07;99987.36;;;5.92;73.98
50484;BME280;36409;52.168;20.878;2022-12-29T08:59:42;99989.95;;;5.97;73.98
50484;BME280;36409;52.168;20.878;2022-12-29T09:02:12;99998.59;;;5.99;74.02
50484;BME280;36409;52.168;20.878;2022-12-29T09:04:49;100002.06;;;6.02;73.76
50484;BME280;36409;52.168;20.878;2022-12-29T09:07:19;99988.23;;;6.05;73.78
50484;BME280;36409;52.168;20.878;2022-12-29T09:09:47;99989.98;;;6.08;73.83
50484;BME280;36409;52.168;20.878;2022-12-29T09:12:17;99987.36;;;6.11;73.71
50484;BME280;36409;52.168;20.878;2022-12-29T09:14:47;99980.45;;;6.13;74.04
50484;BME280;36409;52.168;20.878;2022-12-29T09:17:16;99989.08;;;6.20;74.13
50484;BME280;36409;52.168;20.878;2022-12-29T09:20:04;99984.72;;;6.28;73.36
50484;BME280;36409;52.168;20.878;2022-12-29T09:22:34;99978.66;;;6.37;73.93
50484;BME280;36409;52.168;20.878;2022-12-29T09:25:03;99989.02;;;6.44;73.35
50484;BME280;36409;52.168;20.878;2022-12-29T09:27:33;99981.20;;;6.47;73.37
50484;BME280;36409;52.168;20.878;2022-12-29T09:30:02;99980.34;;;6.50;72.83
50484;BME280;36409;52.168;20.878;2022-12-29T09:32:31;99979.47;;;6.53;73.45
50484;BME280;36409;52.168;20.878;2022-12-29T09:35:03;99977.73;;;6.58;73.54
50484;BME280;36409;52.168;20.878;2022-12-29T09:37:32;99980.29;;;6.61;73.13
50484;BME280;36409;52.168;20.878;2022-12-29T09:40:02;99969.91;;;6.64;73.10
50484;BME280;36409;52.168;20.878;2022-12-29T09:42:35;99971.64;;;6.68;73.28
50484;BME280;36409;52.168;20.878;2022-12-29T09:45:11;99974.21;;;6.70;72.97
50484;BME280;36409;52.168;20.878;2022-12-29T09:47:43;99969.87;;;6.70;73.38
50484;BME280;36409;52.168;20.878;2022-12-29T09:50:21;99969.88;;;6.72;72.46
50484;BME280;36409;52.168;20.878;2022-12-29T09:52:58;99958.62;;;6.71;72.59
50484;BME280;36409;52.168;20.878;2022-12-29T09:55:35;99957.78;;;6.71;72.76
50484;BME280;36409;52.168;20.878;2022-12-29T09:58:10;99960.36;;;6.72;72.62
50484;BME280;36409;52.168;20.878;2022-12-29T10:00:47;99961.22;;;6.71;72.60
50484;BME280;36409;52.168;20.878;2022-12-29T10:03:25;99959.49;;;6.70;72.65
50484;BME280;36409;52.168;20.878;2022-12-29T10:06:03;99953.45;;;6.70;72.31
50484;BME280;36409;52.168;20.878;2022-12-29T10:08:38;99951.72;;;6.70;72.66
50484;BME280;36409;52.168;20.878;2022-12-29T10:11:16;99937.88;;;6.71;72.52
50484;BME280;36409;52.168;20.878;2022-12-29T10:14:00;99936.16;;;6.72;72.74
50484;BME280;36409;52.168;20.878;2022-12-29T10:16:41;99937.89;;;6.73;72.10
50484;BME280;36409;52.168;20.878;2022-12-29T10:22:13;99933.55;;;6.73;72.10
50484;BME280;36409;52.168;20.878;2022-12-29T10:24:48;99927.52;;;6.73;72.24
50484;BME280;36409;52.168;20.878;2022-12-29T10:27:20;99920.58;;;6.73;72.37
50484;BME280;36409;52.168;20.878;2022-12-29T10:29:52;99930.08;;;6.77;71.75
50484;BME280;36409;52.168;20.878;2022-12-29T10:32:30;99930.07;;;6.80;72.17
50484;BME280;36409;52.168;20.878;2022-12-29T10:35:05;99932.64;;;6.85;72.09
50484;BME280;36409;52.168;20.878;2022-12-29T10:37:45;99921.36;;;6.91;72.19
50484;BME280;36409;52.168;20.878;2022-12-29T10:40:24;99925.61;;;7.00;72.16
50484;BME280;36409;52.168;20.878;2022-12-29T10:42:55;99915.19;;;7.04;71.94
50484;BME280;36409;52.168;20.878;2022-12-29T10:45:29;99910.00;;;7.09;71.86
50484;BME280;36409;52.168;20.878;2022-12-29T10:48:01;99910.81;;;7.14;71.90
50484;BME280;36409;52.168;20.878;2022-12-29T10:50:32;99907.28;;;7.21;71.92
50484;BME280;36409;52.168;20.878;2022-12-29T10:53:04;99912.48;;;7.23;71.47
50484;BME280;36409;52.168;20.878;2022-12-29T10:55:36;99904.66;;;7.28;71.74
50484;BME280;36409;52.168;20.878;2022-12-29T10:58:10;99904.62;;;7.32;72.08
50484;BME280;36409;52.168;20.878;2022-12-29T11:00:52;99908.05;;;7.36;72.00
50484;BME280;36409;52.168;20.878;2022-12-29T11:03:47;99907.14;;;7.38;71.36
50484;BME280;36409;52.168;20.878;2022-12-29T11:06:23;99909.75;;;7.40;71.85
50484;BME280;36409;52.168;20.878;2022-12-29T11:08:56;99908.00;;;7.40;72.07
50484;BME280;36409;52.168;20.878;2022-12-29T11:11:27;99909.72;;;7.41;71.56
50484;BME280;36409;52.168;20.878;2022-12-29T11:13:59;99905.39;;;7.44;72.10
50484;BME280;36409;52.168;20.878;2022-12-29T11:16:32;99902.77;;;7.45;71.99
50484;BME280;36409;52.168;20.878;2022-12-29T11:19:02;99901.89;;;7.46;71.37
50484;BME280;36409;52.168;20.878;2022-12-29T11:21:36;99893.23;;;7.47;71.51
50484;BME280;36409;52.168;20.878;2022-12-29T11:24:21;99897.52;;;7.50;71.69
50484;BME280;36409;52.168;20.878;2022-12-29T11:26:51;99886.27;;;7.51;71.40
50484;BME280;36409;52.168;20.878;2022-12-29T11:29:27;99892.29;;;7.54;71.27
50484;BME280;36409;52.168;20.878;2022-12-29T11:31:58;99900.09;;;7.56;71.54
50484;BME280;36409;52.168;20.878;2022-12-29T11:34:32;99907.85;;;7.57;70.84
50484;BME280;36409;52.168;20.878;2022-12-29T11:37:06;99913.07;;;7.56;71.64
50484;BME280;36409;52.168;20.878;2022-12-29T11:39:43;99900.09;;;7.56;71.60
50484;BME280;36409;52.168;20.878;2022-12-29T11:42:16;99902.66;;;7.57;71.50
50484;BME280;36409;52.168;20.878;2022-12-29T11:44:47;99900.94;;;7.58;71.12
50484;BME280;36409;52.168;20.878;2022-12-29T11:47:26;99892.27;;;7.59;71.44
50484;BME280;36409;52.168;20.878;2022-12-29T11:50:00;99898.31;;;7.60;70.65
50484;BME280;36409;52.168;20.878;2022-12-29T11:52:32;99898.28;;;7.61;70.62
50484;BME280;36409;52.168;20.878;2022-12-29T11:55:05;99906.94;;;7.63;70.95
50484;BME280;36409;52.168;20.878;2022-12-29T11:57:35;99891.33;;;7.66;71.44
50484;BME280;36409;52.168;20.878;2022-12-29T12:00:16;99886.95;;;7.70;71.17
50484;BME280;36409;52.168;20.878;2022-12-29T12:02:49;99881.73;;;7.73;71.37
50484;BME280;36409;52.168;20.878;2022-12-29T12:05:27;99887.73;;;7.78;71.06
50484;BME280;36409;52.168;20.878;2022-12-29T12:08:03;99883.36;;;7.83;70.78
50484;BME280;36409;52.168;20.878;2022-12-29T12:10:36;99884.18;;;7.87;70.66
50484;BME280;36409;52.168;20.878;2022-12-29T12:13:22;99891.08;;;7.89;71.19
50484;BME280;36409;52.168;20.878;2022-12-29T12:15:57;99887.61;;;7.92;70.87
50484;BME280;36409;52.168;20.878;2022-12-29T12:18:34;99885.83;;;7.94;70.38
50484;BME280;36409;52.168;20.878;2022-12-29T12:21:12;99884.11;;;7.95;70.52
50484;BME280;36409;52.168;20.878;2022-12-29T12:23:59;99880.63;;;7.96;70.41
50484;BME280;36409;52.168;20.878;2022-12-29T12:26:35;99879.76;;;7.97;71.10
50484;BME280;36409;52.168;20.878;2022-12-29T12:29:09;99875.41;;;7.97;70.34
50484;BME280;36409;52.168;20.878;2022-12-29T12:31:47;99875.41;;;7.99;70.10
50484;BME280;36409;52.168;20.878;2022-12-29T12:34:22;99875.38;;;8.00;70.77
50484;BME280;36409;52.168;20.878;2022-12-29T12:37:08;99868.43;;;8.02;70.09
50484;BME280;36409;52.168;20.878;2022-12-29T12:39:49;99863.17;;;8.06;70.01
50484;BME280;36409;52.168;20.878;2022-12-29T12:42:37;99857.95;;;8.10;70.72
50484;BME280;36409;52.168;20.878;2022-12-29T12:45:36;99855.28;;;8.13;70.35
50484;BME280;36409;52.168;20.878;2022-12-29T12:48:23;99843.14;;;8.15;70.29
50484;BME280;36409;52.168;20.878;2022-12-29T12:51:03;99846.58;;;8.17;70.04
50484;BME280;36409;52.168;20.878;2022-12-29T12:53:44;99843.08;;;8.20;70.15
50484;BME280;36409;52.168;20.878;2022-12-29T12:56:29;99840.47;;;8.20;70.55
50484;BME280;36409;52.168;20.878;2022-12-29T12:59:14;99840.47;;;8.22;70.67
50484;BME280;36409;52.168;20.878;2022-12-29T13:01:52;99843.89;;;8.24;70.60
50484;BME280;36409;52.168;20.878;2022-12-29T13:04:37;99853.41;;;8.25;70.14
50484;BME280;36409;52.168;20.878;2022-12-29T13:07:21;99856.89;;;8.25;70.28
50484;BME280;36409;52.168;20.878;2022-12-29T13:10:02;99852.53;;;8.26;70.22
50484;BME280;36409;52.168;20.878;2022-12-29T13:12:43;99856.02;;;8.25;70.31
50484;BME280;36409;52.168;20.878;2022-12-29T13:15:24;99859.49;;;8.25;70.04
50484;BME280;36409;52.168;20.878;2022-12-29T13:18:02;99862.09;;;8.24;69.79
50484;BME280;36409;52.168;20.878;2022-12-29T13:20:41;99867.29;;;8.24;70.07
50484;BME280;36409;52.168;20.878;2022-12-29T13:23:18;99862.09;;;8.24;69.89
50484;BME280;36409;52.168;20.878;2022-12-29T13:25:59;99855.16;;;8.23;70.21
50484;BME280;36409;52.168;20.878;2022-12-29T13:28:34;99863.84;;;8.23;69.96
50484;BME280;36409;52.168;20.878;2022-12-29T13:31:12;99858.61;;;8.25;69.54
50484;BME280;36409;52.168;20.878;2022-12-29T13:33:50;99855.14;;;8.26;69.74
50484;BME280;36409;52.168;20.878;2022-12-29T13:36:25;99853.38;;;8.28;69.76
50484;BME280;36409;52.168;20.878;2022-12-29T13:39:02;99866.35;;;8.29;69.58
50484;BME280;36409;52.168;20.878;2022-12-29T13:41:37;99868.95;;;8.29;69.66